sensor_id;sensor_type;location;lat;lon;timestamp;P1;durP1;ratioP1;P2;durP2;ratioP2
11422;SDS011;5768;51.476;7.210;2023-04-15T00:02:17;8.17;;;6.90;;
11422;SDS011;5768;51.476;7.210;2023-04-15T00:07:21;6.73;;;6.13;;
11422;SDS011;5768;51.476;7.210;2023-04-15T00:12:23;10.20;;;7.07;;
11422;SDS011;5768;51.476;7.210;2023-04-15T00:17:26;8.07;;;6.63;;
11422;SDS011;5768;51.476;7.210;2023-04-15T00:22:29;8.80;;;6.87;;
11422;SDS011;5768;51.476;7.210;2023-04-15T00:27:31;7.97;;;7.13;;
11422;SDS011;5768;51.476;7.210;2023-04-15T00:32:34;8.93;;;7.57;;
11422;SDS011;5768;51.476;7.210;2023-04-15T00:37:37;9.77;;;7.10;;
11422;SDS011;5768;51.476;7.210;2023-04-15T00:42:39;10.70;;;8.07;;
11422;SDS011;5768;51.476;7.210;2023-04-15T00:47:42;8.97;;;7.53;;
11422;SDS011;5768;51.476;7.210;2023-04-15T00:52:46;9.30;;;7.60;;
11422;SDS011;5768;51.476;7.210;2023-04-15T00:57:49;8.30;;;7.43;;
11422;SDS011;5768;51.476;7.210;2023-04-15T01:02:53;8.20;;;7.30;;
11422;SDS011;5768;51.476;7.210;2023-04-15T01:07:56;9.50;;;7.80;;
11422;SDS011;5768;51.476;7.210;2023-04-15T01:12:59;9.03;;;8.07;;
11422;SDS011;5768;51.476;7.210;2023-04-15T01:18:01;9.63;;;8.27;;
11422;SDS011;5768;51.476;7.210;2023-04-15T01:23:05;8.93;;;7.40;;
11422;SDS011;5768;51.476;7.210;2023-04-15T01:28:09;9.77;;;8.30;;
11422;SDS011;5768;51.476;7.210;2023-04-15T01:33:11;8.63;;;7.73;;
11422;SDS011;5768;51.476;7.210;2023-04-15T01:38:13;11.77;;;8.57;;
11422;SDS011;5768;51.476;7.210;2023-04-15T01:43:17;9.30;;;8.40;;
11422;SDS011;5768;51.476;7.210;2023-04-15T01:48:20;9.57;;;8.27;;
11422;SDS011;5768;51.476;7.210;2023-04-15T01:53:22;8.77;;;7.93;;
11422;SDS011;5768;51.476;7.210;2023-04-15T01:58:26;11.33;;;9.27;;
11422;SDS011;5768;51.476;7.210;2023-04-15T02:03:28;9.97;;;8.63;;
11422;SDS011;5768;51.476;7.210;2023-04-15T02:08:31;10.30;;;8.77;;
11422;SDS011;5768;51.476;7.210;2023-04-15T02:13:35;9.87;;;8.83;;
11422;SDS011;5768;51.476;7.210;2023-04-15T02:18:37;11.30;;;9.17;;
11422;SDS011;5768;51.476;7.210;2023-04-15T02:23:40;10.70;;;9.60;;
11422;SDS011;5768;51.476;7.210;2023-04-15T02:28:45;11.43;;;10.20;;
11422;SDS011;5768;51.476;7.210;2023-04-15T02:33:47;10.60;;;9.57;;
11422;SDS011;5768;51.476;7.210;2023-04-15T02:38:50;9.73;;;8.73;;
11422;SDS011;5768;51.476;7.210;2023-04-15T02:43:53;11.17;;;9.07;;
11422;SDS011;5768;51.476;7.210;2023-04-15T02:48:56;9.67;;;8.67;;
11422;SDS011;5768;51.476;7.210;2023-04-15T02:53:58;9.93;;;9.00;;
11422;SDS011;5768;51.476;7.210;2023-04-15T02:59:02;10.67;;;9.57;;
11422;SDS011;5768;51.476;7.210;2023-04-15T03:04:05;10.67;;;9.33;;
11422;SDS011;5768;51.476;7.210;2023-04-15T03:09:10;10.20;;;8.77;;
11422;SDS011;5768;51.476;7.210;2023-04-15T03:14:14;9.70;;;8.80;;
11422;SDS011;5768;51.476;7.210;2023-04-15T03:19:16;9.67;;;8.67;;
11422;SDS011;5768;51.476;7.210;2023-04-15T03:24:19;9.70;;;8.70;;
11422;SDS011;5768;51.476;7.210;2023-04-15T03:29:23;10.13;;;8.90;;
11422;SDS011;5768;51.476;7.210;2023-04-15T03:34:25;10.57;;;8.53;;
11422;SDS011;5768;51.476;7.210;2023-04-15T03:39:27;9.73;;;8.73;;
11422;SDS011;5768;51.476;7.210;2023-04-15T03:44:31;10.13;;;9.13;;
11422;SDS011;5768;51.476;7.210;2023-04-15T03:49:34;9.30;;;8.33;;
11422;SDS011;5768;51.476;7.210;2023-04-15T03:54:40;9.30;;;8.40;;
11422;SDS011;5768;51.476;7.210;2023-04-15T03:59:43;9.53;;;8.63;;
11422;SDS011;5768;51.476;7.210;2023-04-15T04:04:45;12.10;;;8.70;;
11422;SDS011;5768;51.476;7.210;2023-04-15T04:09:48;11.00;;;9.37;;
11422;SDS011;5768;51.476;7.210;2023-04-15T04:14:52;9.23;;;8.43;;
11422;SDS011;5768;51.476;7.210;2023-04-15T04:19:56;9.77;;;8.57;;
11422;SDS011;5768;51.476;7.210;2023-04-15T04:24:58;9.27;;;8.37;;
11422;SDS011;5768;51.476;7.210;2023-04-15T04:30:03;10.00;;;8.77;;
11422;SDS011;5768;51.476;7.210;2023-04-15T04:35:07;10.67;;;9.57;;
11422;SDS011;5768;51.476;7.210;2023-04-15T04:40:11;12.00;;;9.70;;
11422;SDS011;5768;51.476;7.210;2023-04-15T04:45:15;10.27;;;9.33;;
11422;SDS011;5768;51.476;7.210;2023-04-15T04:50:18;10.20;;;9.20;;
11422;SDS011;5768;51.476;7.210;2023-04-15T04:55:20;10.47;;;9.33;;
11422;SDS011;5768;51.476;7.210;2023-04-15T05:00:23;11.00;;;9.90;;
11422;SDS011;5768;51.476;7.210;2023-04-15T05:05:29;10.80;;;9.50;;
11422;SDS011;5768;51.476;7.210;2023-04-15T05:10:31;11.27;;;10.13;;
11422;SDS011;5768;51.476;7.210;2023-04-15T05:15:35;11.00;;;9.90;;
11422;SDS011;5768;51.476;7.210;2023-04-15T05:20:38;12.13;;;9.83;;
11422;SDS011;5768;51.476;7.210;2023-04-15T05:25:41;11.40;;;10.40;;
11422;SDS011;5768;51.476;7.210;2023-04-15T05:30:44;10.90;;;9.80;;
11422;SDS011;5768;51.476;7.210;2023-04-15T05:35:46;11.30;;;10.20;;
11422;SDS011;5768;51.476;7.210;2023-04-15T05:40:49;11.23;;;10.03;;
11422;SDS011;5768;51.476;7.210;2023-04-15T05:45:53;10.83;;;9.83;;
11422;SDS011;5768;51.476;7.210;2023-04-15T05:50:55;10.77;;;9.60;;
11422;SDS011;5768;51.476;7.210;2023-04-15T05:55:57;10.40;;;9.50;;
11422;SDS011;5768;51.476;7.210;2023-04-15T06:01:01;10.87;;;9.87;;
11422;SDS011;5768;51.476;7.210;2023-04-15T06:06:04;11.07;;;10.07;;
11422;SDS011;5768;51.476;7.210;2023-04-15T06:11:06;10.43;;;9.33;;
11422;SDS011;5768;51.476;7.210;2023-04-15T06:16:10;11.87;;;10.67;;
11422;SDS011;5768;51.476;7.210;2023-04-15T06:21:14;12.10;;;10.90;;
11422;SDS011;5768;51.476;7.210;2023-04-15T06:26:17;12.53;;;11.33;;
11422;SDS011;5768;51.476;7.210;2023-04-15T06:31:20;12.37;;;11.17;;
11422;SDS011;5768;51.476;7.210;2023-04-15T06:36:23;11.97;;;10.67;;
11422;SDS011;5768;51.476;7.210;2023-04-15T06:41:26;11.40;;;10.40;;
11422;SDS011;5768;51.476;7.210;2023-04-15T06:46:29;11.47;;;10.27;;
11422;SDS011;5768;51.476;7.210;2023-04-15T06:51:33;11.50;;;10.40;;
11422;SDS011;5768;51.476;7.210;2023-04-15T06:56:39;12.00;;;10.80;;
11422;SDS011;5768;51.476;7.210;2023-04-15T07:01:43;11.47;;;10.37;;
11422;SDS011;5768;51.476;7.210;2023-04-15T07:06:45;11.27;;;10.03;;
11422;SDS011;5768;51.476;7.210;2023-04-15T07:11:47;11.90;;;10.17;;
11422;SDS011;5768;51.476;7.210;2023-04-15T07:16:51;13.67;;;10.33;;
11422;SDS011;5768;51.476;7.210;2023-04-15T07:21:54;10.10;;;9.10;;
11422;SDS011;5768;51.476;7.210;2023-04-15T07:26:56;11.97;;;9.27;;
11422;SDS011;5768;51.476;7.210;2023-04-15T07:32:00;9.83;;;8.63;;
11422;SDS011;5768;51.476;7.210;2023-04-15T07:37:02;8.77;;;7.97;;
11422;SDS011;5768;51.476;7.210;2023-04-15T07:42:04;8.80;;;8.00;;
11422;SDS011;5768;51.476;7.210;2023-04-15T07:47:09;7.60;;;6.90;;
11422;SDS011;5768;51.476;7.210;2023-04-15T07:52:11;7.50;;;6.80;;
11422;SDS011;5768;51.476;7.210;2023-04-15T07:57:13;7.63;;;6.93;;
11422;SDS011;5768;51.476;7.210;2023-04-15T08:02:17;7.80;;;7.10;;
11422;SDS011;5768;51.476;7.210;2023-04-15T08:07:19;7.50;;;6.80;;
11422;SDS011;5768;51.476;7.210;2023-04-15T08:12:22;7.47;;;6.57;;
11422;SDS011;5768;51.476;7.210;2023-04-15T08:17:26;7.10;;;6.40;;
11422;SDS011;5768;51.476;7.210;2023-04-15T08:22:28;6.67;;;6.00;;
11422;SDS011;5768;51.476;7.210;2023-04-15T08:27:31;6.13;;;5.60;;
11422;SDS011;5768;51.476;7.210;2023-04-15T08:32:34;7.43;;;6.60;;
11422;SDS011;5768;51.476;7.210;2023-04-15T08:37:37;6.90;;;6.30;;
11422;SDS011;5768;51.476;7.210;2023-04-15T08:42:40;5.83;;;5.33;;
11422;SDS011;5768;51.476;7.210;2023-04-15T08:47:47;6.37;;;5.77;;
11422;SDS011;5768;51.476;7.210;2023-04-15T08:52:59;5.70;;;5.20;;
11422;SDS011;5768;51.476;7.210;2023-04-15T08:58:02;6.23;;;5.73;;
11422;SDS011;5768;51.476;7.210;2023-04-15T09:03:08;4.90;;;4.50;;
11422;SDS011;5768;51.476;7.210;2023-04-15T09:08:10;4.20;;;3.80;;
11422;SDS011;5768;51.476;7.210;2023-04-15T09:13:12;4.13;;;3.72;;
11422;SDS011;5768;51.476;7.210;2023-04-15T09:18:27;3.85;;;3.55;;
11422;SDS011;5768;51.476;7.210;2023-04-15T09:23:31;4.35;;;3.58;;
11422;SDS011;5768;51.476;7.210;2023-04-15T09:28:40;3.85;;;3.55;;
11422;SDS011;5768;51.476;7.210;2023-04-15T09:33:54;4.22;;;3.92;;
11422;SDS011;5768;51.476;7.210;2023-04-15T09:38:57;4.78;;;4.38;;
11422;SDS011;5768;51.476;7.210;2023-04-15T09:44:00;5.10;;;4.70;;
11422;SDS011;5768;51.476;7.210;2023-04-15T09:49:07;5.10;;;4.70;;
11422;SDS011;5768;51.476;7.210;2023-04-15T09:54:17;5.75;;;5.25;;
11422;SDS011;5768;51.476;7.210;2023-04-15T09:59:21;5.28;;;4.82;;
11422;SDS011;5768;51.476;7.210;2023-04-15T10:04:24;5.57;;;5.07;;
11422;SDS011;5768;51.476;7.210;2023-04-15T10:09:29;4.93;;;4.53;;
11422;SDS011;5768;51.476;7.210;2023-04-15T10:14:35;5.40;;;4.90;;
11422;SDS011;5768;51.476;7.210;2023-04-15T10:19:42;5.88;;;5.38;;
11422;SDS011;5768;51.476;7.210;2023-04-15T10:24:45;4.78;;;4.38;;
11422;SDS011;5768;51.476;7.210;2023-04-15T10:29:49;4.60;;;4.20;;
11422;SDS011;5768;51.476;7.210;2023-04-15T10:34:55;4.50;;;4.10;;
11422;SDS011;5768;51.476;7.210;2023-04-15T10:39:58;3.75;;;3.45;;
11422;SDS011;5768;51.476;7.210;2023-04-15T10:45:02;4.10;;;3.70;;
11422;SDS011;5768;51.476;7.210;2023-04-15T10:50:18;4.80;;;4.40;;
11422;SDS011;5768;51.476;7.210;2023-04-15T10:55:22;4.97;;;4.57;;
11422;SDS011;5768;51.476;7.210;2023-04-15T11:00:27;4.60;;;4.20;;
11422;SDS011;5768;51.476;7.210;2023-04-15T11:05:51;4.70;;;4.30;;
11422;SDS011;5768;51.476;7.210;2023-04-15T11:10:55;4.57;;;4.18;;
11422;SDS011;5768;51.476;7.210;2023-04-15T11:16:00;5.40;;;4.90;;
11422;SDS011;5768;51.476;7.210;2023-04-15T11:21:06;6.15;;;4.80;;
11422;SDS011;5768;51.476;7.210;2023-04-15T11:26:09;6.50;;;5.27;;
11422;SDS011;5768;51.476;7.210;2023-04-15T11:31:12;5.40;;;4.90;;
11422;SDS011;5768;51.476;7.210;2023-04-15T11:36:18;5.27;;;4.87;;
11422;SDS011;5768;51.476;7.210;2023-04-15T11:41:20;5.53;;;5.03;;
11422;SDS011;5768;51.476;7.210;2023-04-15T11:46:27;5.07;;;4.67;;
11422;SDS011;5768;51.476;7.210;2023-04-15T11:51:33;5.00;;;4.60;;
11422;SDS011;5768;51.476;7.210;2023-04-15T11:56:36;5.20;;;4.70;;
11422;SDS011;5768;51.476;7.210;2023-04-15T12:01:38;4.80;;;4.40;;
11422;SDS011;5768;51.476;7.210;2023-04-15T12:06:44;5.53;;;4.90;;
11422;SDS011;5768;51.476;7.210;2023-04-15T12:11:47;5.40;;;4.90;;
11422;SDS011;5768;51.476;7.210;2023-04-15T12:16:51;5.47;;;4.97;;
11422;SDS011;5768;51.476;7.210;2023-04-15T12:21:58;5.30;;;4.90;;
11422;SDS011;5768;51.476;7.210;2023-04-15T12:27:02;5.10;;;4.70;;
11422;SDS011;5768;51.476;7.210;2023-04-15T12:32:07;4.30;;;3.90;;
11422;SDS011;5768;51.476;7.210;2023-04-15T12:37:12;5.43;;;4.93;;
11422;SDS011;5768;51.476;7.210;2023-04-15T12:42:15;5.40;;;4.90;;
11422;SDS011;5768;51.476;7.210;2023-04-15T12:47:18;4.90;;;4.50;;
11422;SDS011;5768;51.476;7.210;2023-04-15T12:52:22;4.00;;;3.53;;
11422;SDS011;5768;51.476;7.210;2023-04-15T12:57:24;4.77;;;3.90;;
11422;SDS011;5768;51.476;7.210;2023-04-15T13:02:27;4.20;;;3.80;;
11422;SDS011;5768;51.476;7.210;2023-04-15T13:07:32;4.20;;;3.90;;
11422;SDS011;5768;51.476;7.210;2023-04-15T13:12:34;4.70;;;4.13;;
11422;SDS011;5768;51.476;7.210;2023-04-15T13:17:37;4.70;;;4.00;;
11422;SDS011;5768;51.476;7.210;2023-04-15T13:22:41;4.30;;;3.90;;
11422;SDS011;5768;51.476;7.210;2023-04-15T13:27:44;4.40;;;4.00;;
11422;SDS011;5768;51.476;7.210;2023-04-15T13:32:47;3.83;;;3.53;;
11422;SDS011;5768;51.476;7.210;2023-04-15T13:37:52;4.30;;;3.90;;
11422;SDS011;5768;51.476;7.210;2023-04-15T13:42:55;3.40;;;3.10;;
11422;SDS011;5768;51.476;7.210;2023-04-15T13:47:57;3.20;;;2.90;;
11422;SDS011;5768;51.476;7.210;2023-04-15T13:53:01;2.87;;;2.63;;
11422;SDS011;5768;51.476;7.210;2023-04-15T13:58:04;3.50;;;3.20;;
11422;SDS011;5768;51.476;7.210;2023-04-15T14:03:06;5.00;;;3.27;;
11422;SDS011;5768;51.476;7.210;2023-04-15T14:08:10;3.60;;;3.30;;
11422;SDS011;5768;51.476;7.210;2023-04-15T14:13:12;3.57;;;3.27;;
11422;SDS011;5768;51.476;7.210;2023-04-15T14:18:15;3.70;;;3.40;;
11422;SDS011;5768;51.476;7.210;2023-04-15T14:23:19;3.10;;;2.80;;
11422;SDS011;5768;51.476;7.210;2023-04-15T14:28:21;4.00;;;3.60;;
11422;SDS011;5768;51.476;7.210;2023-04-15T14:33:24;4.00;;;3.60;;
11422;SDS011;5768;51.476;7.210;2023-04-15T14:38:28;3.90;;;3.60;;
11422;SDS011;5768;51.476;7.210;2023-04-15T14:43:32;3.93;;;3.63;;
11422;SDS011;5768;51.476;7.210;2023-04-15T14:48:35;5.67;;;3.63;;
11422;SDS011;5768;51.476;7.210;2023-04-15T14:53:38;4.87;;;3.87;;
11422;SDS011;5768;51.476;7.210;2023-04-15T14:58:41;3.43;;;3.13;;
11422;SDS011;5768;51.476;7.210;2023-04-15T15:03:43;3.87;;;3.27;;
11422;SDS011;5768;51.476;7.210;2023-04-15T15:08:47;4.57;;;3.33;;
11422;SDS011;5768;51.476;7.210;2023-04-15T15:13:52;3.77;;;3.47;;
11422;SDS011;5768;51.476;7.210;2023-04-15T15:18:55;4.03;;;3.63;;
11422;SDS011;5768;51.476;7.210;2023-04-15T15:23:59;5.30;;;3.00;;
11422;SDS011;5768;51.476;7.210;2023-04-15T15:29:01;3.97;;;3.10;;
11422;SDS011;5768;51.476;7.210;2023-04-15T15:34:04;3.30;;;3.00;;
11422;SDS011;5768;51.476;7.210;2023-04-15T15:39:07;3.07;;;2.83;;
11422;SDS011;5768;51.476;7.210;2023-04-15T15:44:11;3.20;;;2.90;;
11422;SDS011;5768;51.476;7.210;2023-04-15T15:49:13;5.37;;;3.40;;
11422;SDS011;5768;51.476;7.210;2023-04-15T15:54:16;6.93;;;2.70;;
11422;SDS011;5768;51.476;7.210;2023-04-15T15:59:19;3.40;;;3.10;;
11422;SDS011;5768;51.476;7.210;2023-04-15T16:04:21;4.30;;;3.40;;
11422;SDS011;5768;51.476;7.210;2023-04-15T16:09:25;3.70;;;3.40;;
11422;SDS011;5768;51.476;7.210;2023-04-15T16:14:33;2.73;;;2.50;;
11422;SDS011;5768;51.476;7.210;2023-04-15T16:19:39;4.90;;;3.60;;
11422;SDS011;5768;51.476;7.210;2023-04-15T16:24:43;3.80;;;3.23;;
11422;SDS011;5768;51.476;7.210;2023-04-15T16:29:45;4.30;;;3.13;;
11422;SDS011;5768;51.476;7.210;2023-04-15T16:34:47;4.03;;;3.20;;
11422;SDS011;5768;51.476;7.210;2023-04-15T16:39:51;3.93;;;3.17;;
11422;SDS011;5768;51.476;7.210;2023-04-15T16:44:53;4.20;;;3.17;;
11422;SDS011;5768;51.476;7.210;2023-04-15T16:49:56;4.43;;;3.80;;
11422;SDS011;5768;51.476;7.210;2023-04-15T16:55:00;4.37;;;3.93;;
11422;SDS011;5768;51.476;7.210;2023-04-15T17:00:02;4.60;;;3.40;;
11422;SDS011;5768;51.476;7.210;2023-04-15T17:05:06;4.33;;;3.80;;
11422;SDS011;5768;51.476;7.210;2023-04-15T17:10:10;4.53;;;3.50;;
11422;SDS011;5768;51.476;7.210;2023-04-15T17:15:13;4.20;;;3.80;;
11422;SDS011;5768;51.476;7.210;2023-04-15T17:20:16;3.33;;;2.83;;
11422;SDS011;5768;51.476;7.210;2023-04-15T17:25:21;5.70;;;3.60;;
11422;SDS011;5768;51.476;7.210;2023-04-15T17:30:24;4.93;;;3.60;;
11422;SDS011;5768;51.476;7.210;2023-04-15T17:35:26;5.13;;;3.73;;
11422;SDS011;5768;51.476;7.210;2023-04-15T17:40:30;6.43;;;3.67;;
11422;SDS011;5768;51.476;7.210;2023-04-15T17:45:32;5.17;;;3.67;;
11422;SDS011;5768;51.476;7.210;2023-04-15T17:50:35;4.37;;;3.60;;
11422;SDS011;5768;51.476;7.210;2023-04-15T17:55:39;6.43;;;3.67;;
11422;SDS011;5768;51.476;7.210;2023-04-15T18:00:41;6.27;;;4.30;;
11422;SDS011;5768;51.476;7.210;2023-04-15T18:05:43;7.37;;;4.30;;
11422;SDS011;5768;51.476;7.210;2023-04-15T18:10:47;5.93;;;4.00;;
11422;SDS011;5768;51.476;7.210;2023-04-15T18:15:49;5.80;;;3.93;;
11422;SDS011;5768;51.476;7.210;2023-04-15T18:20:51;4.47;;;4.07;;
11422;SDS011;5768;51.476;7.210;2023-04-15T18:25:55;4.53;;;3.90;;
11422;SDS011;5768;51.476;7.210;2023-04-15T18:30:58;5.07;;;4.57;;
11422;SDS011;5768;51.476;7.210;2023-04-15T18:36:09;6.30;;;4.83;;
11422;SDS011;5768;51.476;7.210;2023-04-15T18:41:13;7.20;;;4.87;;
11422;SDS011;5768;51.476;7.210;2023-04-15T18:46:15;5.60;;;4.97;;
11422;SDS011;5768;51.476;7.210;2023-04-15T18:51:18;5.87;;;4.43;;
11422;SDS011;5768;51.476;7.210;2023-04-15T18:56:21;5.50;;;4.30;;
11422;SDS011;5768;51.476;7.210;2023-04-15T19:01:24;7.13;;;4.90;;
11422;SDS011;5768;51.476;7.210;2023-04-15T19:06:26;4.17;;;3.23;;
11422;SDS011;5768;51.476;7.210;2023-04-15T19:11:30;5.93;;;3.20;;
11422;SDS011;5768;51.476;7.210;2023-04-15T19:16:32;4.60;;;3.43;;
11422;SDS011;5768;51.476;7.210;2023-04-15T19:21:35;4.73;;;3.90;;
11422;SDS011;5768;51.476;7.210;2023-04-15T19:26:38;4.43;;;4.00;;
11422;SDS011;5768;51.476;7.210;2023-04-15T19:31:40;3.90;;;3.60;;
11422;SDS011;5768;51.476;7.210;2023-04-15T19:36:43;7.10;;;3.93;;
11422;SDS011;5768;51.476;7.210;2023-04-15T19:41:48;5.73;;;4.20;;
11422;SDS011;5768;51.476;7.210;2023-04-15T19:46:51;4.80;;;3.80;;
11422;SDS011;5768;51.476;7.210;2023-04-15T19:51:53;7.20;;;4.20;;
11422;SDS011;5768;51.476;7.210;2023-04-15T19:56:56;4.27;;;3.67;;
11422;SDS011;5768;51.476;7.210;2023-04-15T20:02:00;5.20;;;4.43;;
11422;SDS011;5768;51.476;7.210;2023-04-15T20:07:03;5.43;;;3.83;;
11422;SDS011;5768;51.476;7.210;2023-04-15T20:12:07;6.77;;;5.17;;
11422;SDS011;5768;51.476;7.210;2023-04-15T20:17:09;5.07;;;4.33;;
11422;SDS011;5768;51.476;7.210;2023-04-15T20:22:11;7.27;;;5.57;;
11422;SDS011;5768;51.476;7.210;2023-04-15T20:27:15;5.93;;;5.33;;
11422;SDS011;5768;51.476;7.210;2023-04-15T20:32:17;6.47;;;5.40;;
11422;SDS011;5768;51.476;7.210;2023-04-15T20:37:19;6.67;;;4.87;;
11422;SDS011;5768;51.476;7.210;2023-04-15T20:42:23;5.87;;;4.87;;
11422;SDS011;5768;51.476;7.210;2023-04-15T20:47:25;6.90;;;5.37;;
11422;SDS011;5768;51.476;7.210;2023-04-15T20:52:28;8.60;;;5.47;;
11422;SDS011;5768;51.476;7.210;2023-04-15T20:57:31;8.03;;;5.20;;
11422;SDS011;5768;51.476;7.210;2023-04-15T21:02:34;9.37;;;5.40;;
11422;SDS011;5768;51.476;7.210;2023-04-15T21:07:39;7.13;;;5.13;;
11422;SDS011;5768;51.476;7.210;2023-04-15T21:12:43;7.13;;;6.03;;
11422;SDS011;5768;51.476;7.210;2023-04-15T21:17:45;9.00;;;6.30;;
11422;SDS011;5768;51.476;7.210;2023-04-15T21:22:48;9.20;;;5.90;;
11422;SDS011;5768;51.476;7.210;2023-04-15T21:27:53;9.27;;;6.30;;
11422;SDS011;5768;51.476;7.210;2023-04-15T21:32:55;7.10;;;5.80;;
11422;SDS011;5768;51.476;7.210;2023-04-15T21:37:57;8.97;;;7.23;;
11422;SDS011;5768;51.476;7.210;2023-04-15T21:43:01;9.63;;;7.50;;
11422;SDS011;5768;51.476;7.210;2023-04-15T21:48:03;9.13;;;7.17;;
11422;SDS011;5768;51.476;7.210;2023-04-15T21:53:07;11.33;;;6.90;;
11422;SDS011;5768;51.476;7.210;2023-04-15T21:58:11;13.00;;;8.80;;
11422;SDS011;5768;51.476;7.210;2023-04-15T22:03:13;10.23;;;7.80;;
11422;SDS011;5768;51.476;7.210;2023-04-15T22:08:16;9.10;;;6.67;;
11422;SDS011;5768;51.476;7.210;2023-04-15T22:13:19;9.30;;;7.40;;
11422;SDS011;5768;51.476;7.210;2023-04-15T22:18:22;10.40;;;8.57;;
11422;SDS011;5768;51.476;7.210;2023-04-15T22:23:25;11.93;;;8.63;;
11422;SDS011;5768;51.476;7.210;2023-04-15T22:28:29;12.27;;;8.03;;
11422;SDS011;5768;51.476;7.210;2023-04-15T22:33:31;13.50;;;8.50;;
11422;SDS011;5768;51.476;7.210;2023-04-15T22:38:34;12.30;;;8.27;;
11422;SDS011;5768;51.476;7.210;2023-04-15T22:43:37;15.60;;;9.03;;
11422;SDS011;5768;51.476;7.210;2023-04-15T22:48:40;12.20;;;9.47;;
11422;SDS011;5768;51.476;7.210;2023-04-15T22:53:45;12.07;;;9.10;;
11422;SDS011;5768;51.476;7.210;2023-04-15T22:58:49;15.43;;;9.43;;
11422;SDS011;5768;51.476;7.210;2023-04-15T23:03:52;14.90;;;9.83;;
11422;SDS011;5768;51.476;7.210;2023-04-15T23:08:54;17.90;;;10.40;;
11422;SDS011;5768;51.476;7.210;2023-04-15T23:13:57;12.83;;;10.17;;
11422;SDS011;5768;51.476;7.210;2023-04-15T23:18:59;14.53;;;10.20;;
11422;SDS011;5768;51.476;7.210;2023-04-15T23:24:02;14.27;;;8.50;;
11422;SDS011;5768;51.476;7.210;2023-04-15T23:29:05;15.80;;;10.00;;
11422;SDS011;5768;51.476;7.210;2023-04-15T23:34:09;15.77;;;10.13;;
11422;SDS011;5768;51.476;7.210;2023-04-15T23:39:11;13.73;;;7.20;;
11422;SDS011;5768;51.476;7.210;2023-04-15T23:44:14;19.47;;;10.43;;
11422;SDS011;5768;51.476;7.210;2023-04-15T23:49:17;15.57;;;9.37;;
11422;SDS011;5768;51.476;7.210;2023-04-15T23:54:22;16.27;;;10.00;;
11422;SDS011;5768;51.476;7.210;2023-04-15T23:59:26;14.53;;;9.47;;
